createdAt,value
2022-09-12T00:00:45.675Z,4.93
2022-09-12T00:03:13.415Z,5.27
2022-09-12T00:05:45.086Z,5.03
2022-09-12T00:08:13.577Z,5.17
2022-09-12T00:10:43.894Z,5.23
2022-09-12T00:13:12.377Z,4.77
2022-09-12T00:15:43.001Z,5.17
2022-09-12T00:18:14.991Z,5.40
2022-09-12T00:20:43.175Z,5.80
2022-09-12T00:23:10.897Z,5.33
2022-09-12T00:25:42.906Z,5.20
2022-09-12T00:28:10.676Z,5.73
2022-09-12T00:30:43.048Z,5.53
2022-09-12T00:33:11.054Z,5.83
2022-09-12T00:35:43.152Z,5.40
2022-09-12T00:38:10.885Z,5.43
2022-09-12T00:40:41.611Z,6.30
2022-09-12T00:43:14.714Z,5.57
2022-09-12T00:45:43.849Z,5.87
2022-09-12T00:48:22.882Z,5.70
2022-09-12T00:50:51.195Z,5.63
2022-09-12T00:53:19.375Z,5.70
2022-09-12T00:55:50.908Z,5.47
2022-09-12T00:58:23.407Z,5.47
2022-09-12T01:00:52.873Z,4.97
2022-09-12T01:03:23.422Z,5.27
2022-09-12T01:06:04.875Z,5.23
2022-09-12T01:08:35.093Z,5.23
2022-09-12T01:11:03.031Z,5.30
2022-09-12T01:13:31.162Z,5.47
2022-09-12T01:16:00.207Z,5.47
2022-09-12T01:18:35.390Z,5.30
2022-09-12T01:21:20.351Z,5.17
2022-09-12T01:24:24.139Z,5.23
2022-09-12T01:27:28.165Z,5.40
2022-09-12T01:30:22.838Z,6.20
2022-09-12T01:33:04.358Z,5.97
2022-09-12T01:35:37.102Z,5.60
2022-09-12T01:38:12.555Z,5.90
2022-09-12T01:40:48.963Z,6.53
2022-09-12T01:43:26.686Z,5.83
2022-09-12T01:46:02.131Z,5.93
2022-09-12T01:48:35.857Z,6.00
2022-09-12T01:51:11.005Z,6.13
2022-09-12T01:53:44.014Z,5.60
2022-09-12T01:56:17.814Z,6.13
2022-09-12T01:58:50.127Z,5.87
2022-09-12T02:01:24.230Z,5.47
2022-09-12T02:03:59.193Z,5.93
2022-09-12T02:06:33.199Z,5.60
2022-09-12T02:09:04.471Z,6.00
2022-09-12T02:11:35.187Z,6.27
2022-09-12T02:14:07.820Z,7.03
2022-09-12T02:16:41.458Z,6.20
2022-09-12T02:19:13.897Z,6.37
2022-09-12T02:21:47.050Z,6.90
2022-09-12T02:24:16.909Z,5.97
2022-09-12T02:26:49.270Z,6.97
2022-09-12T02:29:17.072Z,6.07
2022-09-12T02:31:49.042Z,6.47
2022-09-12T02:34:28.929Z,6.60
2022-09-12T02:37:06.919Z,7.43
2022-09-12T02:39:35.815Z,6.37
2022-09-12T02:42:05.046Z,6.53
2022-09-12T02:44:36.028Z,6.90
2022-09-12T02:47:09.679Z,6.73
2022-09-12T02:49:37.730Z,6.77
2022-09-12T02:52:05.497Z,6.60
2022-09-12T02:54:33.817Z,6.93
2022-09-12T02:57:01.486Z,7.10
2022-09-12T02:59:29.419Z,6.73
2022-09-12T03:02:14.511Z,6.80
2022-09-12T03:04:55.402Z,6.53
2022-09-12T03:07:37.790Z,6.60
2022-09-12T03:10:11.496Z,6.83
2022-09-12T03:12:48.521Z,6.00
2022-09-12T03:15:29.470Z,6.97
2022-09-12T03:18:19.739Z,6.70
2022-09-12T03:20:54.751Z,6.10
2022-09-12T03:23:31.067Z,7.50
2022-09-12T03:26:03.951Z,6.53
2022-09-12T03:28:34.027Z,6.07
2022-09-12T03:31:01.773Z,6.50
2022-09-12T03:33:30.853Z,5.83
2022-09-12T03:35:58.805Z,6.57
2022-09-12T03:38:26.471Z,6.53
2022-09-12T03:40:55.013Z,6.90
2022-09-12T03:43:23.071Z,7.07
2022-09-12T03:45:53.217Z,6.93
2022-09-12T03:48:21.012Z,6.97
2022-09-12T03:50:50.134Z,7.63
2022-09-12T03:53:17.995Z,7.57
2022-09-12T03:55:45.805Z,7.63
2022-09-12T03:58:13.444Z,7.90
2022-09-12T04:00:42.853Z,7.70
2022-09-12T04:03:10.717Z,7.60
2022-09-12T04:05:38.555Z,7.87
2022-09-12T04:08:07.755Z,8.13
2022-09-12T04:10:35.679Z,7.23
2022-09-12T04:13:03.386Z,8.17
2022-09-12T04:15:31.018Z,8.57
2022-09-12T04:18:02.421Z,8.67
2022-09-12T04:20:33.033Z,7.73
2022-09-12T04:23:00.738Z,7.37
2022-09-12T04:25:31.347Z,7.80
2022-09-12T04:27:59.088Z,8.03
2022-09-12T04:30:26.914Z,8.67
2022-09-12T04:32:54.611Z,8.20
2022-09-12T04:35:22.277Z,7.60
2022-09-12T04:37:49.933Z,8.17
2022-09-12T04:40:18.783Z,8.63
2022-09-12T04:42:47.849Z,8.03
2022-09-12T04:45:16.705Z,8.93
2022-09-12T04:47:44.419Z,7.90
2022-09-12T04:50:12.062Z,8.03
2022-09-12T04:52:39.727Z,8.37
2022-09-12T04:55:08.367Z,8.23
2022-09-12T04:57:36.545Z,8.50
2022-09-12T05:00:07.381Z,8.53
2022-09-12T05:02:35.582Z,8.37
2022-09-12T05:05:03.226Z,8.73
2022-09-12T05:07:30.891Z,8.37
2022-09-12T05:10:01.222Z,8.70
2022-09-12T05:12:32.075Z,8.07
2022-09-12T05:15:02.571Z,8.30
2022-09-12T05:17:33.366Z,7.53
2022-09-12T05:20:03.163Z,9.40
2022-09-12T05:22:31.334Z,8.80
2022-09-12T05:25:02.448Z,8.70
2022-09-12T05:27:32.388Z,9.87
2022-09-12T05:30:03.517Z,9.10
2022-09-12T05:32:37.053Z,9.17
2022-09-12T05:35:07.537Z,9.73
2022-09-12T05:37:37.435Z,9.43
2022-09-12T05:40:09.180Z,8.60
2022-09-12T05:42:39.830Z,9.33
2022-09-12T05:45:08.640Z,9.17
2022-09-12T05:47:37.718Z,10.10
2022-09-12T05:50:10.779Z,10.07
2022-09-12T05:52:38.701Z,10.07
2022-09-12T05:55:07.370Z,9.37
2022-09-12T05:57:35.313Z,10.20
2022-09-12T06:00:03.934Z,9.40
2022-09-12T06:02:31.620Z,9.83
2022-09-12T06:05:00.902Z,9.77
2022-09-12T06:07:28.815Z,9.43
2022-09-12T06:09:56.467Z,10.37
2022-09-12T06:12:24.098Z,10.17
2022-09-12T06:14:51.795Z,10.00
2022-09-12T06:17:19.617Z,10.00
2022-09-12T06:19:47.330Z,10.73
2022-09-12T06:22:16.578Z,10.23
2022-09-12T06:24:44.246Z,10.07
2022-09-12T06:27:11.924Z,10.20
2022-09-12T06:29:39.611Z,10.20
2022-09-12T06:32:07.858Z,9.37
2022-09-12T06:34:36.462Z,9.77
2022-09-12T06:37:04.723Z,10.33
2022-09-12T06:39:33.839Z,10.57
2022-09-12T06:42:01.456Z,10.13
2022-09-12T06:44:29.774Z,10.83
2022-09-12T06:46:58.725Z,10.67
2022-09-12T06:49:26.699Z,10.30
2022-09-12T06:51:54.319Z,10.00
2022-09-12T06:54:23.311Z,10.27
2022-09-12T06:56:52.295Z,10.30
2022-09-12T06:59:19.998Z,10.17
2022-09-12T07:01:47.936Z,10.27
2022-09-12T07:04:16.021Z,9.40
2022-09-12T07:06:44.945Z,9.10
2022-09-12T07:09:14.123Z,10.60
2022-09-12T07:11:42.970Z,9.33
2022-09-12T07:14:14.159Z,8.10
2022-09-12T07:16:42.635Z,8.67
2022-09-12T07:19:11.006Z,9.13
2022-09-12T07:21:40.221Z,9.80
2022-09-12T07:24:10.196Z,8.97
2022-09-12T07:26:38.707Z,7.67
2022-09-12T07:29:34.793Z,8.27
2022-09-12T07:31:55.690Z,8.63
2022-09-12T07:34:23.364Z,8.30
2022-09-12T07:36:51.069Z,6.80
2022-09-12T07:39:18.834Z,7.17
2022-09-12T07:41:46.691Z,5.60
2022-09-12T07:44:14.327Z,5.73
2022-09-12T07:46:42.226Z,5.63
2022-09-12T07:49:13.380Z,5.70
2022-09-12T07:51:41.161Z,5.20
2022-09-12T07:54:10.170Z,4.70
2022-09-12T07:56:39.437Z,4.67
2022-09-12T07:59:07.614Z,4.20
2022-09-12T08:01:35.539Z,4.53
2022-09-12T08:04:04.862Z,4.60
2022-09-12T08:06:36.073Z,4.07
2022-09-12T08:09:05.920Z,4.40
2022-09-12T08:11:33.601Z,4.70
2022-09-12T08:14:03.072Z,4.63
2022-09-12T08:16:34.749Z,4.10
2022-09-12T08:19:03.537Z,3.70
2022-09-12T08:21:33.965Z,4.03
2022-09-12T08:24:04.683Z,3.77
2022-09-12T08:26:33.728Z,3.63
2022-09-12T08:29:02.445Z,3.53
2022-09-12T08:31:31.887Z,3.53
2022-09-12T08:34:00.794Z,3.37
2022-09-12T08:36:29.641Z,3.10
2022-09-12T08:39:00.825Z,3.23
2022-09-12T08:41:34.725Z,3.23
2022-09-12T08:44:18.128Z,2.67
2022-09-12T08:47:00.325Z,2.40
2022-09-12T08:49:31.760Z,3.00
2022-09-12T08:52:03.937Z,2.70
2022-09-12T08:54:34.380Z,2.60
2022-09-12T08:57:05.022Z,1.87
2022-09-12T08:59:38.281Z,2.33
2022-09-12T09:02:22.776Z,2.87
2022-09-12T09:04:53.618Z,2.00
2022-09-12T09:07:35.801Z,2.40
2022-09-12T09:10:15.290Z,2.37
2022-09-12T09:12:54.007Z,2.30
2022-09-12T09:15:35.018Z,2.30
2022-09-12T09:18:07.391Z,2.23
2022-09-12T09:20:42.953Z,2.17
2022-09-12T09:23:17.545Z,1.80
2022-09-12T09:25:53.983Z,2.00
2022-09-12T09:28:24.789Z,2.03
2022-09-12T09:30:53.380Z,2.30
2022-09-12T09:33:27.327Z,2.30
2022-09-12T09:36:06.686Z,2.53
2022-09-12T09:38:46.905Z,2.17
2022-09-12T09:41:31.436Z,2.20
2022-09-12T09:44:00.850Z,2.43
2022-09-12T09:46:29.112Z,2.30
2022-09-12T09:49:04.060Z,2.50
2022-09-12T09:51:36.856Z,2.30
2022-09-12T09:54:11.662Z,2.60
2022-09-12T09:56:43.238Z,2.43
2022-09-12T09:59:12.795Z,2.43
2022-09-12T10:01:47.282Z,2.67
2022-09-12T10:04:23.405Z,2.50
2022-09-12T10:06:54.334Z,2.70
2022-09-12T10:09:25.413Z,2.63
2022-09-12T10:11:55.936Z,1.97
2022-09-12T10:14:39.351Z,1.80
2022-09-12T10:17:33.908Z,1.80
2022-09-12T10:20:21.405Z,1.60
2022-09-12T10:22:50.331Z,1.63
2022-09-12T10:25:21.168Z,1.60
2022-09-12T10:27:57.071Z,1.67
2022-09-12T10:30:28.213Z,1.50
2022-09-12T10:33:05.368Z,1.77
2022-09-12T10:35:45.602Z,1.63
2022-09-12T10:38:18.809Z,1.80
2022-09-12T10:40:46.498Z,1.90
2022-09-12T10:43:27.257Z,1.73
2022-09-12T10:45:58.997Z,1.83
2022-09-12T10:48:30.423Z,1.60
2022-09-12T10:50:58.404Z,1.70
2022-09-12T10:53:32.285Z,1.70
2022-09-12T10:56:08.849Z,1.70
2022-09-12T10:59:11.765Z,1.60
2022-09-12T11:01:42.660Z,1.80
2022-09-12T11:04:25.413Z,1.40
2022-09-12T11:07:04.626Z,1.60
2022-09-12T11:09:42.450Z,1.70
2022-09-12T11:12:20.602Z,1.70
2022-09-12T11:15:02.968Z,1.35
2022-09-12T11:17:44.455Z,1.20
2022-09-12T11:20:36.749Z,1.70
2022-09-12T11:23:39.085Z,1.40
2022-09-12T11:26:18.480Z,1.40
2022-09-12T11:29:01.423Z,1.77
2022-09-12T11:31:49.864Z,1.40
2022-09-12T11:34:26.116Z,1.30
2022-09-12T11:37:18.062Z,1.58
2022-09-12T11:39:52.284Z,2.00
2022-09-12T11:42:27.475Z,1.50
2022-09-12T11:45:04.126Z,1.42
2022-09-12T11:47:35.983Z,1.50
2022-09-12T11:50:15.950Z,1.67
2022-09-12T11:52:43.667Z,1.90
2022-09-12T11:55:18.199Z,1.40
2022-09-12T11:57:51.338Z,1.60
2022-09-12T12:00:21.609Z,1.63
2022-09-12T12:03:02.334Z,1.60
2022-09-12T12:05:35.228Z,1.60
2022-09-12T12:08:06.561Z,1.27
2022-09-12T12:10:37.917Z,1.05
2022-09-12T12:13:18.499Z,1.38
2022-09-12T12:15:49.438Z,1.40
2022-09-12T12:18:23.312Z,1.40
2022-09-12T12:20:51.764Z,1.23
2022-09-12T12:23:24.766Z,1.30
2022-09-12T12:25:54.982Z,1.40
2022-09-12T12:28:59.353Z,1.50
2022-09-12T12:31:27.294Z,1.65
2022-09-12T12:34:04.729Z,1.50
2022-09-12T12:36:38.460Z,1.50
2022-09-12T12:39:42.695Z,1.55
2022-09-12T12:42:10.533Z,1.00
2022-09-12T12:44:52.501Z,1.50
2022-09-12T12:47:24.177Z,1.60
2022-09-12T12:49:54.392Z,1.42
2022-09-12T12:52:22.264Z,1.65
2022-09-12T12:54:53.761Z,1.88
2022-09-12T12:57:30.977Z,1.30
2022-09-12T13:00:02.709Z,1.88
2022-09-12T13:02:33.526Z,1.60
2022-09-12T13:05:07.958Z,1.83
2022-09-12T13:07:38.890Z,1.40
2022-09-12T13:10:08.679Z,1.83
2022-09-12T13:12:38.851Z,1.90
2022-09-12T13:15:46.219Z,1.83
2022-09-12T13:18:18.947Z,2.10
2022-09-12T13:20:52.351Z,1.90
2022-09-12T13:23:25.158Z,2.00
2022-09-12T13:25:56.816Z,2.00
2022-09-12T13:28:26.352Z,2.38
2022-09-12T13:31:01.483Z,1.80
2022-09-12T13:33:35.893Z,1.95
2022-09-12T13:36:26.153Z,1.75
2022-09-12T13:39:15.910Z,1.77
2022-09-12T13:42:17.834Z,1.83
2022-09-12T13:44:48.784Z,2.05
2022-09-12T13:47:26.428Z,2.20
2022-09-12T13:49:55.026Z,1.60
2022-09-12T13:52:29.002Z,1.60
2022-09-12T13:54:59.431Z,1.58
2022-09-12T13:57:33.717Z,2.30
2022-09-12T14:00:04.614Z,1.83
2022-09-12T14:02:37.028Z,1.88
2022-09-12T14:05:13.547Z,2.40
2022-09-12T14:07:56.109Z,2.30
2022-09-12T14:10:30.186Z,2.10
2022-09-12T14:12:59.599Z,2.00
2022-09-12T14:15:29.967Z,2.15
2022-09-12T14:17:59.676Z,1.88
2022-09-12T14:20:29.711Z,2.15
2022-09-12T14:23:02.410Z,2.10
2022-09-12T14:25:37.270Z,2.53
2022-09-12T14:28:06.105Z,2.50
2022-09-12T14:30:37.363Z,2.30
2022-09-12T14:33:20.780Z,2.28
2022-09-12T14:35:51.450Z,2.35
2022-09-12T14:38:26.889Z,2.60
2022-09-12T14:41:01.607Z,2.22
2022-09-12T14:43:31.468Z,2.10
2022-09-12T14:46:15.442Z,2.28
2022-09-12T14:48:48.667Z,2.30
2022-09-12T14:51:22.006Z,2.03
2022-09-12T14:53:51.270Z,2.20
2022-09-12T14:56:22.464Z,2.42
2022-09-12T14:58:50.467Z,2.13
2022-09-12T15:01:28.144Z,1.45
2022-09-12T15:03:57.417Z,1.92
2022-09-12T15:06:29.742Z,2.17
2022-09-12T15:09:01.003Z,1.67
2022-09-12T15:11:28.955Z,1.58
2022-09-12T15:13:56.723Z,2.03
2022-09-12T15:16:24.408Z,1.90
2022-09-12T15:18:52.291Z,1.90
2022-09-12T15:21:21.473Z,2.20
2022-09-12T15:23:50.908Z,2.03
2022-09-12T15:26:22.548Z,2.00
2022-09-12T15:28:50.305Z,2.30
2022-09-12T15:31:24.720Z,1.65
2022-09-12T15:33:53.098Z,2.60
2022-09-12T15:36:22.859Z,2.00
2022-09-12T15:38:51.409Z,2.42
2022-09-12T15:41:22.638Z,2.03
2022-09-12T15:43:50.502Z,1.85
2022-09-12T15:46:24.295Z,2.00
2022-09-12T15:48:52.132Z,1.95
2022-09-12T15:51:21.619Z,2.00
2022-09-12T15:53:50.661Z,2.00
2022-09-12T15:56:22.879Z,1.80
2022-09-12T15:58:59.591Z,1.90
2022-09-12T16:01:28.312Z,1.90
2022-09-12T16:03:56.060Z,1.50
2022-09-12T16:06:23.855Z,1.90
2022-09-12T16:08:51.689Z,1.88
2022-09-12T16:11:23.032Z,1.60
2022-09-12T16:13:50.990Z,1.75
2022-09-12T16:16:20.479Z,1.33
2022-09-12T16:18:48.324Z,1.92
2022-09-12T16:21:16.251Z,1.80
2022-09-12T16:23:44.185Z,1.55
2022-09-12T16:26:12.074Z,1.60
2022-09-12T16:28:41.213Z,1.67
2022-09-12T16:31:11.837Z,1.70
2022-09-12T16:33:40.835Z,1.83
2022-09-12T16:36:10.577Z,1.40
2022-09-12T16:38:42.120Z,1.73
2022-09-12T16:41:09.880Z,1.48
2022-09-12T16:43:38.124Z,2.00
2022-09-12T16:46:10.279Z,1.52
2022-09-12T16:48:38.904Z,1.35
2022-09-12T16:51:07.817Z,1.15
2022-09-12T16:53:37.271Z,1.40
2022-09-12T16:56:05.351Z,1.60
2022-09-12T16:58:36.447Z,1.60
2022-09-12T17:01:11.057Z,1.23
2022-09-12T17:03:39.078Z,1.70
2022-09-12T17:06:08.843Z,1.45
2022-09-12T17:08:38.176Z,1.17
2022-09-12T17:11:07.915Z,1.17
2022-09-12T17:13:53.354Z,1.60
2022-09-12T17:16:25.606Z,1.40
2022-09-12T17:18:54.594Z,1.40
2022-09-12T17:21:22.844Z,1.40
2022-09-12T17:23:50.670Z,1.50
2022-09-12T17:26:18.346Z,1.23
2022-09-12T17:28:46.335Z,1.30
2022-09-12T17:31:15.641Z,1.50
2022-09-12T17:33:45.394Z,1.40
2022-09-12T17:36:15.419Z,1.13
2022-09-12T17:38:44.566Z,1.58
2022-09-12T17:41:17.742Z,1.40
2022-09-12T17:43:46.451Z,1.75
2022-09-12T17:46:14.648Z,1.55
2022-09-12T17:48:44.054Z,1.40
2022-09-12T17:51:13.506Z,1.38
2022-09-12T17:53:41.570Z,1.55
2022-09-12T17:56:10.341Z,1.55
2022-09-12T17:58:38.427Z,1.60
2022-09-12T18:01:26.205Z,1.77
2022-09-12T18:03:55.992Z,1.45
2022-09-12T18:06:23.864Z,1.50
2022-09-12T18:08:51.746Z,1.55
2022-09-12T18:11:19.547Z,1.70
2022-09-12T18:13:47.437Z,1.40
2022-09-12T18:16:15.591Z,1.65
2022-09-12T18:18:43.304Z,1.58
2022-09-12T18:21:13.433Z,1.40
2022-09-12T18:23:41.149Z,1.60
2022-09-12T18:26:10.861Z,1.73
2022-09-12T18:28:41.326Z,1.73
2022-09-12T18:31:12.972Z,1.80
2022-09-12T18:33:40.959Z,1.70
2022-09-12T18:36:10.663Z,1.90
2022-09-12T18:38:40.575Z,1.70
2022-09-12T18:41:10.369Z,1.67
2022-09-12T18:43:38.315Z,1.45
2022-09-12T18:46:07.543Z,1.50
2022-09-12T18:48:36.442Z,1.80
2022-09-12T18:51:07.372Z,1.90
2022-09-12T18:53:38.247Z,1.58
2022-09-12T18:56:11.179Z,1.95
2022-09-12T18:58:43.674Z,1.95
2022-09-12T19:01:15.048Z,1.60
2022-09-12T19:03:44.994Z,1.70
2022-09-12T19:06:17.714Z,1.50
2022-09-12T19:08:48.355Z,1.45
2022-09-12T19:11:20.060Z,1.70
2022-09-12T19:13:51.050Z,1.80
2022-09-12T19:16:23.315Z,1.60
2022-09-12T19:18:54.423Z,1.73
2022-09-12T19:21:25.645Z,1.80
2022-09-12T19:23:58.358Z,1.67
2022-09-12T19:26:30.736Z,1.80
2022-09-12T19:29:03.582Z,1.80
2022-09-12T19:31:34.966Z,1.80
2022-09-12T19:34:05.027Z,2.10
2022-09-12T19:36:45.285Z,1.50
2022-09-12T19:39:16.767Z,1.60
2022-09-12T19:41:46.476Z,1.48
2022-09-12T19:44:16.962Z,1.60
2022-09-12T19:46:45.898Z,1.75
2022-09-12T19:49:14.885Z,1.92
2022-09-12T19:51:43.677Z,1.83
2022-09-12T19:54:13.226Z,1.70
2022-09-12T19:56:42.839Z,1.90
2022-09-12T19:59:15.262Z,1.88
2022-09-12T20:01:43.996Z,1.85
2022-09-12T20:04:12.068Z,1.90
2022-09-12T20:06:41.174Z,2.40
2022-09-12T20:09:10.612Z,1.88
2022-09-12T20:11:39.567Z,2.00
2022-09-12T20:14:10.486Z,2.45
2022-09-12T20:16:39.758Z,2.30
2022-09-12T20:19:09.802Z,1.90
2022-09-12T20:21:38.201Z,2.30
2022-09-12T20:24:09.277Z,2.20
2022-09-12T20:26:39.944Z,2.42
2022-09-12T20:29:10.419Z,2.13
2022-09-12T20:31:44.320Z,2.42
2022-09-12T20:34:17.821Z,2.17
2022-09-12T20:36:48.869Z,2.20
2022-09-12T20:39:21.627Z,1.90
2022-09-12T20:41:50.031Z,2.25
2022-09-12T20:44:18.190Z,2.15
2022-09-12T20:46:47.490Z,1.67
2022-09-12T20:49:18.318Z,2.13
2022-09-12T20:51:49.464Z,2.40
2022-09-12T20:54:20.473Z,2.50
2022-09-12T20:56:51.172Z,2.08
2022-09-12T20:59:20.884Z,2.30
2022-09-12T21:01:49.925Z,2.03
2022-09-12T21:04:24.851Z,2.17
2022-09-12T21:06:55.483Z,2.00
2022-09-12T21:09:25.086Z,1.98
2022-09-12T21:11:54.736Z,1.80
2022-09-12T21:14:24.174Z,2.25
2022-09-12T21:16:53.268Z,2.10
2022-09-12T21:19:22.120Z,2.20
2022-09-12T21:21:51.119Z,2.10
2022-09-12T21:24:21.110Z,2.22
2022-09-12T21:26:52.187Z,2.50
2022-09-12T21:29:21.510Z,2.38
2022-09-12T21:31:51.753Z,2.65
2022-09-12T21:34:24.274Z,2.80
2022-09-12T21:36:54.596Z,2.65
2022-09-12T21:39:23.062Z,2.63
2022-09-12T21:41:53.652Z,2.55
2022-09-12T21:44:24.318Z,2.90
2022-09-12T21:46:55.197Z,2.85
2022-09-12T21:49:27.424Z,2.67
2022-09-12T21:51:58.170Z,2.80
2022-09-12T21:54:28.185Z,2.70
2022-09-12T21:56:56.826Z,2.85
2022-09-12T21:59:27.107Z,2.60
2022-09-12T22:01:56.054Z,2.43
2022-09-12T22:04:27.160Z,2.80
2022-09-12T22:06:58.739Z,2.38
2022-09-12T22:09:29.527Z,2.53
2022-09-12T22:11:59.362Z,2.70
2022-09-12T22:14:28.961Z,2.53
2022-09-12T22:16:57.547Z,2.73
2022-09-12T22:19:28.379Z,2.42
2022-09-12T22:22:16.324Z,2.70
2022-09-12T22:24:44.919Z,2.47
2022-09-12T22:27:13.132Z,2.30
2022-09-12T22:29:40.834Z,2.97
2022-09-12T22:32:08.528Z,2.47
2022-09-12T22:34:37.519Z,2.70
2022-09-12T22:37:05.324Z,2.58
2022-09-12T22:39:33.245Z,2.37
2022-09-12T22:42:01.583Z,2.70
2022-09-12T22:44:29.219Z,2.27
2022-09-12T22:46:57.007Z,2.80
2022-09-12T22:49:24.735Z,2.43
2022-09-12T22:51:54.156Z,2.67
2022-09-12T22:54:21.789Z,2.72
2022-09-12T22:56:49.629Z,2.40
2022-09-12T22:59:17.419Z,2.50
2022-09-12T23:01:45.042Z,3.00
2022-09-12T23:04:13.148Z,2.70
2022-09-12T23:06:41.212Z,2.80
2022-09-12T23:09:10.398Z,2.47
2022-09-12T23:11:38.082Z,2.77
2022-09-12T23:14:05.743Z,2.70
2022-09-12T23:16:33.457Z,3.00
2022-09-12T23:19:01.159Z,2.57
2022-09-12T23:21:29.928Z,2.42
2022-09-12T23:23:57.660Z,2.77
2022-09-12T23:26:28.221Z,2.53
2022-09-12T23:28:58.099Z,2.72
2022-09-12T23:31:29.745Z,2.97
2022-09-12T23:33:59.430Z,2.90
2022-09-12T23:36:27.519Z,2.60
2022-09-12T23:38:55.923Z,2.33
2022-09-12T23:41:24.052Z,2.80
2022-09-12T23:43:53.102Z,2.63
2022-09-12T23:46:21.388Z,2.57
2022-09-12T23:48:49.575Z,2.60
2022-09-12T23:51:17.392Z,2.30
2022-09-12T23:53:45.053Z,2.30
2022-09-12T23:56:12.697Z,2.27
2022-09-12T23:58:40.423Z,2.83
